sensor_id;sensor_type;location;lat;lon;timestamp;pressure;altitude;pressure_sealevel;temperature;humidity
46303;BME280;32029;51.358;5.628;2022-08-11T00:01:21;101943.34;;;22.02;52.58
46303;BME280;32029;51.358;5.628;2022-08-11T00:03:55;101920.44;;;21.82;52.73
46303;BME280;32029;51.358;5.628;2022-08-11T00:06:44;101942.91;;;21.87;52.81
46303;BME280;32029;51.358;5.628;2022-08-11T00:09:16;101920.97;;;21.72;53.09
46303;BME280;32029;51.358;5.628;2022-08-11T00:11:50;101920.91;;;21.61;53.32
46303;BME280;32029;51.358;5.628;2022-08-11T00:14:23;101935.19;;;21.71;53.46
46303;BME280;32029;51.358;5.628;2022-08-11T00:19:34;101909.41;;;21.39;53.73
46303;BME280;32029;51.358;5.628;2022-08-11T00:22:03;101931.41;;;21.47;54.13
46303;BME280;32029;51.358;5.628;2022-08-11T00:24:34;101939.53;;;21.48;54.38
46303;BME280;32029;51.358;5.628;2022-08-11T00:27:03;101933.81;;;21.43;54.57
46303;BME280;32029;51.358;5.628;2022-08-11T00:29:32;101928.75;;;21.34;54.80
46303;BME280;32029;51.358;5.628;2022-08-11T00:32:03;101928.81;;;21.27;55.01
46303;BME280;32029;51.358;5.628;2022-08-11T00:34:33;101919.66;;;21.20;54.93
46303;BME280;32029;51.358;5.628;2022-08-11T00:37:07;101916.94;;;21.13;55.33
46303;BME280;32029;51.358;5.628;2022-08-11T00:39:44;101921.47;;;21.14;55.35
46303;BME280;32029;51.358;5.628;2022-08-11T00:43:06;101930.03;;;21.13;55.57
46303;BME280;32029;51.358;5.628;2022-08-11T00:45:41;101901.13;;;20.89;55.35
46303;BME280;32029;51.358;5.628;2022-08-11T00:48:28;101938.25;;;21.08;55.85
46303;BME280;32029;51.358;5.628;2022-08-11T00:59:39;101937.06;;;20.97;55.78
46303;BME280;32029;51.358;5.628;2022-08-11T01:07:59;101938.69;;;20.86;56.21
46303;BME280;32029;51.358;5.628;2022-08-11T01:11:00;101932.94;;;20.81;56.25
46303;BME280;32029;51.358;5.628;2022-08-11T01:17:34;101943.53;;;20.72;56.68
46303;BME280;32029;51.358;5.628;2022-08-11T01:19:43;101942.50;;;20.67;56.65
46303;BME280;32029;51.358;5.628;2022-08-11T01:31:20;101940.06;;;20.45;57.28
46303;BME280;32029;51.358;5.628;2022-08-11T01:45:28;101949.88;;;20.23;58.32
46303;BME280;32029;51.358;5.628;2022-08-11T01:48:18;101951.41;;;20.19;58.26
46303;BME280;32029;51.358;5.628;2022-08-11T01:56:29;101954.28;;;20.05;58.74
46303;BME280;32029;51.358;5.628;2022-08-11T01:59:20;101947.44;;;20.01;58.86
46303;BME280;32029;51.358;5.628;2022-08-11T02:04:43;101950.25;;;19.95;58.78
46303;BME280;32029;51.358;5.628;2022-08-11T02:07:20;101952.41;;;19.93;59.10
46303;BME280;32029;51.358;5.628;2022-08-11T02:10:20;101951.13;;;19.89;59.21
46303;BME280;32029;51.358;5.628;2022-08-11T02:15:45;101942.44;;;19.72;59.44
46303;BME280;32029;51.358;5.628;2022-08-11T02:18:27;101923.00;;;19.58;59.68
46303;BME280;32029;51.358;5.628;2022-08-11T02:21:44;101891.59;;;19.38;59.45
46303;BME280;32029;51.358;5.628;2022-08-11T02:27:29;101943.09;;;19.61;59.87
46303;BME280;32029;51.358;5.628;2022-08-11T02:32:38;101936.50;;;19.55;59.97
46303;BME280;32029;51.358;5.628;2022-08-11T02:35:28;101930.75;;;19.43;60.29
46303;BME280;32029;51.358;5.628;2022-08-11T02:43:29;101885.69;;;19.15;60.56
46303;BME280;32029;51.358;5.628;2022-08-11T02:46:20;101925.63;;;19.40;60.55
46303;BME280;32029;51.358;5.628;2022-08-11T02:49:09;101935.50;;;19.36;60.86
46303;BME280;32029;51.358;5.628;2022-08-11T02:52:06;101935.06;;;19.32;61.00
46303;BME280;32029;51.358;5.628;2022-08-11T02:57:27;101903.25;;;19.08;60.93
46303;BME280;32029;51.358;5.628;2022-08-11T03:00:06;101925.28;;;19.17;61.04
46303;BME280;32029;51.358;5.628;2022-08-11T03:08:39;101903.50;;;18.94;61.48
46303;BME280;32029;51.358;5.628;2022-08-11T03:14:28;101931.28;;;19.07;61.60
46303;BME280;32029;51.358;5.628;2022-08-11T03:17:50;101929.16;;;19.02;61.94
46303;BME280;32029;51.358;5.628;2022-08-11T03:26:23;101912.50;;;18.82;62.13
46303;BME280;32029;51.358;5.628;2022-08-11T03:29:19;101930.44;;;18.87;62.45
46303;BME280;32029;51.358;5.628;2022-08-11T03:31:58;101891.53;;;18.53;62.58
46303;BME280;32029;51.358;5.628;2022-08-11T03:34:30;101925.53;;;18.75;62.79
46303;BME280;32029;51.358;5.628;2022-08-11T03:37:04;101931.53;;;18.79;63.10
46303;BME280;32029;51.358;5.628;2022-08-11T03:39:57;101933.03;;;18.75;63.18
46303;BME280;32029;51.358;5.628;2022-08-11T03:51:04;101941.34;;;18.61;63.34
46303;BME280;32029;51.358;5.628;2022-08-11T03:53:48;101945.19;;;18.60;63.54
46303;BME280;32029;51.358;5.628;2022-08-11T04:02:25;101905.00;;;18.43;63.45
46303;BME280;32029;51.358;5.628;2022-08-11T04:13:39;101933.44;;;18.45;63.95
46303;BME280;32029;51.358;5.628;2022-08-11T04:16:41;101938.75;;;18.40;64.25
46303;BME280;32029;51.358;5.628;2022-08-11T04:19:34;101928.72;;;18.39;64.41
46303;BME280;32029;51.358;5.628;2022-08-11T04:33:40;101919.09;;;18.28;64.76
46303;BME280;32029;51.358;5.628;2022-08-11T04:36:36;101930.44;;;18.27;65.06
46303;BME280;32029;51.358;5.628;2022-08-11T04:39:41;101921.44;;;18.25;65.26
46303;BME280;32029;51.358;5.628;2022-08-11T04:52:18;101872.66;;;17.82;65.36
46303;BME280;32029;51.358;5.628;2022-08-11T04:55:17;101937.47;;;18.23;65.69
46303;BME280;32029;51.358;5.628;2022-08-11T05:01:54;101905.38;;;18.13;65.47
46303;BME280;32029;51.358;5.628;2022-08-11T05:17:03;101918.03;;;18.43;65.42
46303;BME280;32029;51.358;5.628;2022-08-11T05:19:51;101926.59;;;18.54;65.20
46303;BME280;32029;51.358;5.628;2022-08-11T05:22:41;101915.06;;;18.57;65.39
46303;BME280;32029;51.358;5.628;2022-08-11T05:25:31;101937.75;;;18.74;65.15
46303;BME280;32029;51.358;5.628;2022-08-11T05:28:34;101929.16;;;18.76;65.25
46303;BME280;32029;51.358;5.628;2022-08-11T05:31:25;101921.50;;;18.78;65.14
46303;BME280;32029;51.358;5.628;2022-08-11T05:34:24;101945.63;;;18.97;65.44
46303;BME280;32029;51.358;5.628;2022-08-11T05:37:19;101936.44;;;18.97;65.61
46303;BME280;32029;51.358;5.628;2022-08-11T05:39:55;101943.66;;;19.11;66.19
46303;BME280;32029;51.358;5.628;2022-08-11T05:42:48;101931.25;;;19.14;65.68
46303;BME280;32029;51.358;5.628;2022-08-11T05:45:35;101923.56;;;19.16;65.68
46303;BME280;32029;51.358;5.628;2022-08-11T05:48:21;101940.41;;;19.34;65.73
46303;BME280;32029;51.358;5.628;2022-08-11T05:51:14;101924.78;;;19.33;65.86
46303;BME280;32029;51.358;5.628;2022-08-11T05:54:03;101946.13;;;19.52;65.19
46303;BME280;32029;51.358;5.628;2022-08-11T05:56:55;101923.44;;;19.49;65.46
46303;BME280;32029;51.358;5.628;2022-08-11T05:59:24;101942.47;;;19.65;64.49
46303;BME280;32029;51.358;5.628;2022-08-11T06:02:03;101952.03;;;19.82;64.76
46303;BME280;32029;51.358;5.628;2022-08-11T06:04:32;101929.13;;;19.80;63.68
46303;BME280;32029;51.358;5.628;2022-08-11T06:07:03;101946.13;;;20.04;63.92
46303;BME280;32029;51.358;5.628;2022-08-11T06:09:38;101944.56;;;20.15;63.65
46303;BME280;32029;51.358;5.628;2022-08-11T06:14:43;101941.41;;;20.36;63.10
46303;BME280;32029;51.358;5.628;2022-08-11T06:17:12;101930.66;;;20.40;63.05
46303;BME280;32029;51.358;5.628;2022-08-11T06:19:41;101925.91;;;20.47;63.00
46303;BME280;32029;51.358;5.628;2022-08-11T06:22:19;101930.56;;;20.60;62.02
46303;BME280;32029;51.358;5.628;2022-08-11T06:24:58;101940.28;;;20.75;61.09
46303;BME280;32029;51.358;5.628;2022-08-11T06:27:29;101942.72;;;20.90;61.17
46303;BME280;32029;51.358;5.628;2022-08-11T06:29:57;101912.31;;;20.82;61.13
46303;BME280;32029;51.358;5.628;2022-08-11T06:32:31;101928.47;;;20.98;60.26
46303;BME280;32029;51.358;5.628;2022-08-11T06:35:18;101945.38;;;21.22;60.14
46303;BME280;32029;51.358;5.628;2022-08-11T06:38:01;101941.03;;;21.33;59.09
46303;BME280;32029;51.358;5.628;2022-08-11T06:40:56;101945.63;;;21.45;59.39
46303;BME280;32029;51.358;5.628;2022-08-11T06:43:50;101942.25;;;21.55;58.69
46303;BME280;32029;51.358;5.628;2022-08-11T06:46:30;101950.06;;;21.65;58.49
46303;BME280;32029;51.358;5.628;2022-08-11T06:49:02;101891.81;;;21.38;58.35
46303;BME280;32029;51.358;5.628;2022-08-11T06:51:33;101930.25;;;21.73;58.25
46303;BME280;32029;51.358;5.628;2022-08-11T06:54:01;101937.78;;;21.84;57.70
46303;BME280;32029;51.358;5.628;2022-08-11T06:56:30;101953.44;;;22.03;57.85
46303;BME280;32029;51.358;5.628;2022-08-11T06:59:18;101945.22;;;22.09;57.59
46303;BME280;32029;51.358;5.628;2022-08-11T07:02:12;101951.25;;;22.24;57.20
46303;BME280;32029;51.358;5.628;2022-08-11T07:04:49;101968.91;;;22.36;56.61
46303;BME280;32029;51.358;5.628;2022-08-11T07:13:37;101955.59;;;22.62;56.23
46303;BME280;32029;51.358;5.628;2022-08-11T07:16:27;101951.97;;;22.73;55.86
46303;BME280;32029;51.358;5.628;2022-08-11T07:18:59;101961.59;;;22.89;55.19
46303;BME280;32029;51.358;5.628;2022-08-11T07:21:46;101960.56;;;23.02;54.35
46303;BME280;32029;51.358;5.628;2022-08-11T07:24:48;101957.13;;;23.11;54.00
46303;BME280;32029;51.358;5.628;2022-08-11T07:27:48;101942.16;;;23.17;53.63
46303;BME280;32029;51.358;5.628;2022-08-11T07:30:38;101949.81;;;23.22;53.26
46303;BME280;32029;51.358;5.628;2022-08-11T07:33:07;101958.56;;;23.37;53.37
46303;BME280;32029;51.358;5.628;2022-08-11T07:35:42;101952.69;;;23.51;52.84
46303;BME280;32029;51.358;5.628;2022-08-11T07:38:21;101958.53;;;23.61;52.84
46303;BME280;32029;51.358;5.628;2022-08-11T07:40:49;101957.91;;;23.70;52.25
46303;BME280;32029;51.358;5.628;2022-08-11T07:43:17;101934.75;;;23.63;52.13
46303;BME280;32029;51.358;5.628;2022-08-11T07:45:45;101958.00;;;23.87;51.75
46303;BME280;32029;51.358;5.628;2022-08-11T07:48:40;101935.41;;;23.94;51.91
46303;BME280;32029;51.358;5.628;2022-08-11T07:51:27;101930.78;;;24.00;51.85
46303;BME280;32029;51.358;5.628;2022-08-11T07:54:13;101926.13;;;24.05;50.94
46303;BME280;32029;51.358;5.628;2022-08-11T07:56:40;101937.25;;;24.17;51.02
46303;BME280;32029;51.358;5.628;2022-08-11T07:59:08;101947.66;;;24.33;50.59
46303;BME280;32029;51.358;5.628;2022-08-11T08:01:54;101949.50;;;24.39;50.88
46303;BME280;32029;51.358;5.628;2022-08-11T08:04:40;101942.78;;;24.40;50.93
46303;BME280;32029;51.358;5.628;2022-08-11T08:07:26;101954.34;;;24.61;50.63
46303;BME280;32029;51.358;5.628;2022-08-11T08:10:11;101942.63;;;24.64;49.82
46303;BME280;32029;51.358;5.628;2022-08-11T08:12:57;101932.84;;;24.66;49.76
46303;BME280;32029;51.358;5.628;2022-08-11T08:15:43;101932.50;;;24.80;49.90
46303;BME280;32029;51.358;5.628;2022-08-11T08:18:33;101940.31;;;24.94;49.25
46303;BME280;32029;51.358;5.628;2022-08-11T08:21:03;101938.97;;;24.97;49.53
46303;BME280;32029;51.358;5.628;2022-08-11T08:23:45;101936.16;;;25.14;49.32
46303;BME280;32029;51.358;5.628;2022-08-11T08:26:14;101938.13;;;25.13;48.94
46303;BME280;32029;51.358;5.628;2022-08-11T08:29:02;101940.94;;;25.35;49.16
46303;BME280;32029;51.358;5.628;2022-08-11T08:31:50;101955.75;;;25.48;48.66
46303;BME280;32029;51.358;5.628;2022-08-11T08:34:18;101951.38;;;25.57;48.60
46303;BME280;32029;51.358;5.628;2022-08-11T08:36:47;101952.88;;;25.64;48.26
46303;BME280;32029;51.358;5.628;2022-08-11T08:39:18;101948.69;;;25.67;47.71
46303;BME280;32029;51.358;5.628;2022-08-11T08:41:50;101953.09;;;25.80;47.48
46303;BME280;32029;51.358;5.628;2022-08-11T08:44:20;101951.53;;;25.89;47.51
46303;BME280;32029;51.358;5.628;2022-08-11T08:46:53;101954.47;;;25.99;47.13
46303;BME280;32029;51.358;5.628;2022-08-11T08:49:26;101936.75;;;25.99;46.49
46303;BME280;32029;51.358;5.628;2022-08-11T08:51:57;101948.16;;;26.14;45.83
46303;BME280;32029;51.358;5.628;2022-08-11T08:54:31;101941.47;;;26.20;46.22
46303;BME280;32029;51.358;5.628;2022-08-11T08:57:05;101947.53;;;26.34;45.93
46303;BME280;32029;51.358;5.628;2022-08-11T08:59:37;101928.63;;;26.29;45.90
46303;BME280;32029;51.358;5.628;2022-08-11T09:02:07;101936.69;;;26.48;45.38
46303;BME280;32029;51.358;5.628;2022-08-11T09:04:40;101940.34;;;26.48;46.30
46303;BME280;32029;51.358;5.628;2022-08-11T09:07:12;101949.84;;;26.69;45.96
46303;BME280;32029;51.358;5.628;2022-08-11T09:09:46;101905.75;;;26.48;45.16
46303;BME280;32029;51.358;5.628;2022-08-11T09:12:15;101927.66;;;26.73;45.94
46303;BME280;32029;51.358;5.628;2022-08-11T09:14:48;101920.88;;;26.74;44.65
46303;BME280;32029;51.358;5.628;2022-08-11T09:17:45;101931.72;;;26.92;45.08
46303;BME280;32029;51.358;5.628;2022-08-11T09:20:19;101943.34;;;27.06;43.70
46303;BME280;32029;51.358;5.628;2022-08-11T09:22:49;101945.75;;;27.19;43.79
46303;BME280;32029;51.358;5.628;2022-08-11T09:25:36;101931.66;;;27.19;43.52
46303;BME280;32029;51.358;5.628;2022-08-11T09:28:23;101943.28;;;27.33;43.01
46303;BME280;32029;51.358;5.628;2022-08-11T09:30:59;101856.50;;;26.87;42.95
46303;BME280;32029;51.358;5.628;2022-08-11T09:33:29;101796.06;;;26.53;42.35
46303;BME280;32029;51.358;5.628;2022-08-11T09:35:59;101934.91;;;27.48;41.97
46303;BME280;32029;51.358;5.628;2022-08-11T09:38:47;101927.38;;;27.64;42.63
46303;BME280;32029;51.358;5.628;2022-08-11T09:41:34;101918.06;;;27.64;42.98
46303;BME280;32029;51.358;5.628;2022-08-11T09:44:03;101935.38;;;27.82;43.60
46303;BME280;32029;51.358;5.628;2022-08-11T09:46:51;101935.38;;;27.93;42.26
46303;BME280;32029;51.358;5.628;2022-08-11T09:49:19;101912.81;;;27.93;42.13
46303;BME280;32029;51.358;5.628;2022-08-11T09:51:50;101914.00;;;28.02;42.97
46303;BME280;32029;51.358;5.628;2022-08-11T09:54:22;101914.00;;;28.07;41.64
46303;BME280;32029;51.358;5.628;2022-08-11T09:56:52;101890.03;;;28.09;42.06
46303;BME280;32029;51.358;5.628;2022-08-11T09:59:38;101907.00;;;28.25;41.32
46303;BME280;32029;51.358;5.628;2022-08-11T10:02:09;101925.09;;;28.44;41.36
46303;BME280;32029;51.358;5.628;2022-08-11T10:04:39;101927.06;;;28.54;40.73
46303;BME280;32029;51.358;5.628;2022-08-11T10:07:08;101909.00;;;28.55;40.62
46303;BME280;32029;51.358;5.628;2022-08-11T10:09:58;101918.06;;;28.67;40.04
46303;BME280;32029;51.358;5.628;2022-08-11T10:12:36;101905.59;;;28.63;39.83
46303;BME280;32029;51.358;5.628;2022-08-11T10:15:10;101909.28;;;28.79;40.09
46303;BME280;32029;51.358;5.628;2022-08-11T10:18:01;101909.28;;;28.84;40.29
46303;BME280;32029;51.358;5.628;2022-08-11T10:20:50;101910.38;;;28.93;39.54
46303;BME280;32029;51.358;5.628;2022-08-11T10:23:18;101903.91;;;28.98;39.99
46303;BME280;32029;51.358;5.628;2022-08-11T10:26:06;101898.53;;;29.07;39.56
46303;BME280;32029;51.358;5.628;2022-08-11T10:28:52;101895.13;;;29.10;38.73
46303;BME280;32029;51.358;5.628;2022-08-11T10:31:21;101902.16;;;29.22;39.04
46303;BME280;32029;51.358;5.628;2022-08-11T10:34:08;101881.81;;;29.20;37.57
46303;BME280;32029;51.358;5.628;2022-08-11T10:36:40;101890.25;;;29.36;38.13
46303;BME280;32029;51.358;5.628;2022-08-11T10:39:17;101892.47;;;29.44;38.17
46303;BME280;32029;51.358;5.628;2022-08-11T10:41:46;101887.94;;;29.53;37.46
46303;BME280;32029;51.358;5.628;2022-08-11T10:44:37;101885.63;;;29.60;35.90
46303;BME280;32029;51.358;5.628;2022-08-11T10:47:06;101890.44;;;29.65;35.59
46303;BME280;32029;51.358;5.628;2022-08-11T10:49:53;101873.75;;;29.63;35.93
46303;BME280;32029;51.358;5.628;2022-08-11T10:52:40;101857.38;;;29.60;35.78
46303;BME280;32029;51.358;5.628;2022-08-11T10:55:28;101867.47;;;29.71;36.70
46303;BME280;32029;51.358;5.628;2022-08-11T10:58:15;101882.09;;;29.89;35.81
46303;BME280;32029;51.358;5.628;2022-08-11T11:01:03;101872.44;;;29.95;35.41
46303;BME280;32029;51.358;5.628;2022-08-11T11:03:32;101867.06;;;29.93;35.46
46303;BME280;32029;51.358;5.628;2022-08-11T11:06:26;101884.22;;;30.07;35.19
46303;BME280;32029;51.358;5.628;2022-08-11T11:09:02;101879.69;;;30.16;35.20
46303;BME280;32029;51.358;5.628;2022-08-11T11:11:38;101868.31;;;30.21;35.02
46303;BME280;32029;51.358;5.628;2022-08-11T11:14:30;101854.47;;;30.20;34.41
46303;BME280;32029;51.358;5.628;2022-08-11T11:17:26;101864.28;;;30.33;33.94
46303;BME280;32029;51.358;5.628;2022-08-11T11:20:16;101869.84;;;30.43;34.03
46303;BME280;32029;51.358;5.628;2022-08-11T11:22:44;101860.81;;;30.41;34.09
46303;BME280;32029;51.358;5.628;2022-08-11T11:25:24;101874.81;;;30.56;33.96
46303;BME280;32029;51.358;5.628;2022-08-11T11:28:27;101878.44;;;30.62;32.97
46303;BME280;32029;51.358;5.628;2022-08-11T11:31:31;101868.00;;;30.62;33.05
46303;BME280;32029;51.358;5.628;2022-08-11T11:34:29;101866.47;;;30.70;31.65
46303;BME280;32029;51.358;5.628;2022-08-11T11:37:03;101869.59;;;30.73;33.33
46303;BME280;32029;51.358;5.628;2022-08-11T11:39:32;101870.09;;;30.81;31.88
46303;BME280;32029;51.358;5.628;2022-08-11T11:42:05;101859.91;;;30.80;32.09
46303;BME280;32029;51.358;5.628;2022-08-11T11:44:37;101860.34;;;30.92;31.92
46303;BME280;32029;51.358;5.628;2022-08-11T11:47:05;101859.16;;;30.98;31.83
46303;BME280;32029;51.358;5.628;2022-08-11T11:49:34;101856.81;;;31.05;31.27
46303;BME280;32029;51.358;5.628;2022-08-11T11:52:07;101853.06;;;31.10;32.34
46303;BME280;32029;51.358;5.628;2022-08-11T11:54:35;101854.91;;;31.19;31.26
46303;BME280;32029;51.358;5.628;2022-08-11T11:57:03;101839.59;;;31.20;30.99
46303;BME280;32029;51.358;5.628;2022-08-11T11:59:51;101841.81;;;31.23;30.67
46303;BME280;32029;51.358;5.628;2022-08-11T12:02:39;101840.66;;;31.24;30.75
46303;BME280;32029;51.358;5.628;2022-08-11T12:05:09;101837.56;;;31.26;30.60
46303;BME280;32029;51.358;5.628;2022-08-11T12:07:38;101829.56;;;31.28;31.25
46303;BME280;32029;51.358;5.628;2022-08-11T12:10:25;101816.31;;;31.23;32.03
46303;BME280;32029;51.358;5.628;2022-08-11T12:12:54;101815.63;;;31.37;31.47
46303;BME280;32029;51.358;5.628;2022-08-11T12:15:41;101826.22;;;31.50;31.30
46303;BME280;32029;51.358;5.628;2022-08-11T12:18:09;101829.81;;;31.56;30.34
46303;BME280;32029;51.358;5.628;2022-08-11T12:20:37;101811.72;;;31.52;31.71
46303;BME280;32029;51.358;5.628;2022-08-11T12:23:05;101805.44;;;31.55;31.10
46303;BME280;32029;51.358;5.628;2022-08-11T12:25:50;101810.88;;;31.70;31.51
46303;BME280;32029;51.358;5.628;2022-08-11T12:28:37;101801.31;;;31.66;30.62
46303;BME280;32029;51.358;5.628;2022-08-11T12:31:06;101811.34;;;31.77;31.37
46303;BME280;32029;51.358;5.628;2022-08-11T12:33:37;101801.91;;;31.82;31.42
46303;BME280;32029;51.358;5.628;2022-08-11T12:36:04;101801.19;;;31.95;30.36
46303;BME280;32029;51.358;5.628;2022-08-11T12:38:33;101797.94;;;32.02;30.97
46303;BME280;32029;51.358;5.628;2022-08-11T12:41:04;101800.84;;;32.15;30.93
46303;BME280;32029;51.358;5.628;2022-08-11T12:43:50;101796.22;;;32.19;30.21
46303;BME280;32029;51.358;5.628;2022-08-11T12:46:36;101796.34;;;32.28;30.09
46303;BME280;32029;51.358;5.628;2022-08-11T12:49:12;101776.34;;;32.19;29.49
46303;BME280;32029;51.358;5.628;2022-08-11T12:52:03;101790.06;;;32.31;29.97
46303;BME280;32029;51.358;5.628;2022-08-11T12:54:43;101792.44;;;32.43;29.03
46303;BME280;32029;51.358;5.628;2022-08-11T13:00:00;101771.81;;;32.51;29.08
46303;BME280;32029;51.358;5.628;2022-08-11T13:02:47;101767.59;;;32.49;28.47
46303;BME280;32029;51.358;5.628;2022-08-11T13:05:34;101768.25;;;32.59;28.23
46303;BME280;32029;51.358;5.628;2022-08-11T13:08:03;101755.41;;;32.48;28.38
46303;BME280;32029;51.358;5.628;2022-08-11T13:10:33;101761.63;;;32.64;28.35
46303;BME280;32029;51.358;5.628;2022-08-11T13:13:20;101760.56;;;32.60;27.94
46303;BME280;32029;51.358;5.628;2022-08-11T13:15:48;101758.28;;;32.62;28.73
46303;BME280;32029;51.358;5.628;2022-08-11T13:18:18;101755.00;;;32.68;28.80
46303;BME280;32029;51.358;5.628;2022-08-11T13:20:53;101755.44;;;32.76;29.22
46303;BME280;32029;51.358;5.628;2022-08-11T13:23:23;101744.06;;;32.76;28.21
46303;BME280;32029;51.358;5.628;2022-08-11T13:25:52;101747.00;;;32.84;28.31
46303;BME280;32029;51.358;5.628;2022-08-11T13:28:21;101746.38;;;32.87;27.98
46303;BME280;32029;51.358;5.628;2022-08-11T13:30:49;101736.91;;;32.92;28.27
46303;BME280;32029;51.358;5.628;2022-08-11T13:33:41;101747.66;;;33.09;27.67
46303;BME280;32029;51.358;5.628;2022-08-11T13:36:09;101747.22;;;33.15;27.15
46303;BME280;32029;51.358;5.628;2022-08-11T13:38:41;101745.41;;;33.20;27.35
46303;BME280;32029;51.358;5.628;2022-08-11T13:41:09;101663.88;;;32.79;27.48
46303;BME280;32029;51.358;5.628;2022-08-11T13:43:55;101743.53;;;33.29;26.90
46303;BME280;32029;51.358;5.628;2022-08-11T13:46:23;101741.53;;;33.29;27.00
46303;BME280;32029;51.358;5.628;2022-08-11T13:48:53;101738.34;;;33.31;26.65
46303;BME280;32029;51.358;5.628;2022-08-11T13:51:23;101735.41;;;33.36;27.28
46303;BME280;32029;51.358;5.628;2022-08-11T13:53:59;101717.50;;;33.35;27.40
46303;BME280;32029;51.358;5.628;2022-08-11T13:56:26;101728.22;;;33.52;27.48
46303;BME280;32029;51.358;5.628;2022-08-11T13:58:55;101736.50;;;33.62;26.76
46303;BME280;32029;51.358;5.628;2022-08-11T14:01:28;101732.38;;;33.69;27.13
46303;BME280;32029;51.358;5.628;2022-08-11T14:04:04;101723.50;;;33.70;26.51
46303;BME280;32029;51.358;5.628;2022-08-11T14:06:37;101710.13;;;33.71;26.84
46303;BME280;32029;51.358;5.628;2022-08-11T14:09:08;101707.28;;;33.71;26.04
46303;BME280;32029;51.358;5.628;2022-08-11T14:11:39;101723.25;;;33.80;26.31
46303;BME280;32029;51.358;5.628;2022-08-11T14:14:26;101713.75;;;33.85;26.84
46303;BME280;32029;51.358;5.628;2022-08-11T14:17:04;101696.47;;;33.81;26.78
46303;BME280;32029;51.358;5.628;2022-08-11T14:19:39;101704.56;;;33.88;26.13
46303;BME280;32029;51.358;5.628;2022-08-11T14:22:07;101708.25;;;33.88;25.87
46303;BME280;32029;51.358;5.628;2022-08-11T14:24:41;101715.16;;;33.96;25.77
46303;BME280;32029;51.358;5.628;2022-08-11T14:27:11;101703.91;;;33.91;26.04
46303;BME280;32029;51.358;5.628;2022-08-11T14:29:41;101700.44;;;33.94;25.89
46303;BME280;32029;51.358;5.628;2022-08-11T14:32:11;101716.06;;;34.05;26.46
46303;BME280;32029;51.358;5.628;2022-08-11T14:34:42;101715.31;;;34.13;26.51
46303;BME280;32029;51.358;5.628;2022-08-11T14:37:18;101715.84;;;34.24;26.91
46303;BME280;32029;51.358;5.628;2022-08-11T14:39:55;101721.63;;;34.33;26.81
46303;BME280;32029;51.358;5.628;2022-08-11T14:42:24;101713.63;;;34.44;26.38
46303;BME280;32029;51.358;5.628;2022-08-11T14:45:15;101703.47;;;34.51;26.29
46303;BME280;32029;51.358;5.628;2022-08-11T14:48:04;101678.09;;;34.41;26.61
46303;BME280;32029;51.358;5.628;2022-08-11T14:50:35;101708.41;;;34.68;26.21
46303;BME280;32029;51.358;5.628;2022-08-11T14:53:09;101709.59;;;34.76;26.23
46303;BME280;32029;51.358;5.628;2022-08-11T14:55:40;101692.34;;;34.81;26.68
46303;BME280;32029;51.358;5.628;2022-08-11T14:58:29;101689.84;;;34.88;25.95
46303;BME280;32029;51.358;5.628;2022-08-11T15:00:59;101679.84;;;34.99;25.55
46303;BME280;32029;51.358;5.628;2022-08-11T15:03:30;101686.22;;;35.05;25.19
46303;BME280;32029;51.358;5.628;2022-08-11T15:06:00;101687.91;;;35.15;25.26
46303;BME280;32029;51.358;5.628;2022-08-11T15:08:34;101686.56;;;35.21;25.61
46303;BME280;32029;51.358;5.628;2022-08-11T15:11:28;101690.09;;;35.26;25.17
46303;BME280;32029;51.358;5.628;2022-08-11T15:14:15;101671.47;;;35.29;25.05
46303;BME280;32029;51.358;5.628;2022-08-11T15:17:07;101682.38;;;35.35;25.21
46303;BME280;32029;51.358;5.628;2022-08-11T15:19:39;101683.94;;;35.50;25.08
46303;BME280;32029;51.358;5.628;2022-08-11T15:22:26;101654.38;;;35.46;25.16
46303;BME280;32029;51.358;5.628;2022-08-11T15:25:13;101674.69;;;35.71;24.62
46303;BME280;32029;51.358;5.628;2022-08-11T15:27:41;101654.19;;;35.69;24.73
46303;BME280;32029;51.358;5.628;2022-08-11T15:30:30;101668.44;;;35.86;24.91
46303;BME280;32029;51.358;5.628;2022-08-11T15:33:18;101650.09;;;35.96;25.01
46303;BME280;32029;51.358;5.628;2022-08-11T15:36:06;101649.53;;;36.20;25.45
46303;BME280;32029;51.358;5.628;2022-08-11T15:38:57;101653.47;;;36.45;24.29
46303;BME280;32029;51.358;5.628;2022-08-11T15:41:30;101649.19;;;36.68;24.97
46303;BME280;32029;51.358;5.628;2022-08-11T15:44:20;101655.19;;;37.05;24.57
46303;BME280;32029;51.358;5.628;2022-08-11T15:47:08;101648.97;;;37.24;23.83
46303;BME280;32029;51.358;5.628;2022-08-11T15:49:38;101661.31;;;37.45;23.46
46303;BME280;32029;51.358;5.628;2022-08-11T15:52:10;101654.44;;;37.59;22.96
46303;BME280;32029;51.358;5.628;2022-08-11T15:54:42;101649.44;;;37.68;23.04
46303;BME280;32029;51.358;5.628;2022-08-11T15:57:11;101651.47;;;37.88;22.99
46303;BME280;32029;51.358;5.628;2022-08-11T16:00:05;101660.38;;;38.20;22.80
46303;BME280;32029;51.358;5.628;2022-08-11T16:02:53;101636.28;;;38.33;23.05
46303;BME280;32029;51.358;5.628;2022-08-11T16:05:42;101636.06;;;38.63;22.86
46303;BME280;32029;51.358;5.628;2022-08-11T16:08:14;101649.91;;;38.97;22.01
46303;BME280;32029;51.358;5.628;2022-08-11T16:10:43;101632.38;;;39.15;22.29
46303;BME280;32029;51.358;5.628;2022-08-11T16:13:12;101643.34;;;39.37;21.26
46303;BME280;32029;51.358;5.628;2022-08-11T16:15:46;101637.28;;;39.55;20.75
46303;BME280;32029;51.358;5.628;2022-08-11T16:18:40;101640.22;;;39.71;20.86
46303;BME280;32029;51.358;5.628;2022-08-11T16:21:12;101627.59;;;39.87;20.89
46303;BME280;32029;51.358;5.628;2022-08-11T16:23:45;101632.97;;;40.05;20.13
46303;BME280;32029;51.358;5.628;2022-08-11T16:26:17;101631.69;;;40.18;20.26